Maria — SV7156 — position and weather

sailwx.info

Track history (hours):
 
Tides and Currents Weather Stations Pressure Air Temp Water Temp Dewpoint Dewpoint Depression Visibility Wind Speed Wind Dir Waves Ship Positions

Maria

Last reported at 2014-Sep-16 10:33 UTC. Time now 2014-Sep-16 11:26 UTC.
Position N 37°53' E 023°33'.

Length 74 m; draft 4.5 m.

Type: Ship. MMSI: 237493000.

Date/timePositionNaut miles runAvg speedWind from/ knotsBaromVisibWave heightAir tempDewpointWater temp
2014-Sep-16 10:33N 37°53' E 023°33'0 0.3
2014-Sep-16 09:33N 37°53' E 023°33'4 0.2
2014-Sep-15 15:06N 37°58' E 023°35'2 3.9
2014-Sep-15 14:33N 37°56' E 023°34'0 0.0
2014-Sep-15 13:33N 37°56' E 023°34'0 0.1
2014-Sep-15 12:33N 37°56' E 023°34'0 0.1
2014-Sep-15 11:33N 37°56' E 023°34'4 3.9
2014-Sep-15 10:33N 37°59' E 023°33'3 3.1
2014-Sep-15 09:33N 38°02' E 023°36'0 0.0
2014-Sep-15 08:33N 38°02' E 023°36'1 0.6
2014-Sep-15 07:29N 38°02' E 023°35'3 3.4
2014-Sep-15 06:33N 37°59' E 023°33'2 0.0
2014-Sep-13 13:18N 37°57' E 023°35'0 0.6
2014-Sep-13 12:33N 37°57' E 023°35'0 0.0
2014-Sep-13 11:33N 37°57' E 023°35'0 0.0
2014-Sep-13 10:32N 37°57' E 023°35'0 0.0
2014-Sep-13 09:32N 37°57' E 023°35'0 0.0
2014-Sep-13 08:33N 37°57' E 023°35'0 0.0
2014-Sep-13 07:32N 37°57' E 023°35'0 0.0
2014-Sep-13 06:34N 37°57' E 023°35'0 0.0
2014-Sep-13 05:33N 37°57' E 023°35'2 2.1
2014-Sep-13 04:34N 37°58' E 023°33'4 3.5
2014-Sep-13 03:32N 38°01' E 023°34'0 0.0
2014-Sep-13 02:16N 38°01' E 023°34'1 0.3
2014-Sep-12 23:19N 38°02' E 023°36'0 0.0
2014-Sep-12 22:32N 38°02' E 023°36'0 0.0
2014-Sep-12 21:33N 38°02' E 023°36'0 0.0
2014-Sep-12 20:31N 38°02' E 023°36'0 0.0
2014-Sep-12 19:33N 38°02' E 023°36'1 0.5
2014-Sep-12 18:28N 38°02' E 023°35'0 0.3
2014-Sep-12 17:27N 38°02' E 023°35'0 0.0
2014-Sep-12 16:24N 38°02' E 023°35'0 0.0
2014-Sep-12 15:27N 38°02' E 023°35'2 0.5
2014-Sep-12 11:04N 38°02' E 023°32'0 0.7
2014-Sep-12 10:26N 38°02' E 023°32'0 0.0
2014-Sep-12 09:23N 38°02' E 023°32'0 0.4
2014-Sep-12 08:33N 38°01' E 023°32'4 4.1
2014-Sep-12 07:33N 37°58' E 023°35'2 0.1
2014-Sep-11 10:34N 37°56' E 023°34'2 1.9
2014-Sep-11 09:33N 37°54' E 023°33'2 1.6
2014-Sep-11 08:34N 37°56' E 023°34'2 0.1
2014-Sep-10 14:27N 37°58' E 023°35'4 4.7
2014-Sep-10 13:34N 37°54' E 023°33'0 0.0
2014-Sep-10 12:34N 37°54' E 023°33'4 3.6
2014-Sep-10 11:34N 37°57' E 023°34'5 4.4
2014-Sep-10 10:31N 38°01' E 023°32'1 0.6
2014-Sep-10 08:25N 38°00' E 023°33'3 3.3
2014-Sep-10 07:34N 37°58' E 023°35'0 0.0
2014-Sep-09 16:20N 37°58' E 023°35'4 5.0
2014-Sep-09 15:34N 37°54' E 023°33'2 2.0
2014-Sep-09 14:33N 37°52' E 023°32'0 0.1
2014-Sep-09 13:34N 37°52' E 023°32'6 6.3
2014-Sep-09 12:33N 37°58' E 023°33'4 3.0
2014-Sep-09 11:23N 38°02' E 023°32'0 0.0
2014-Sep-09 10:33N 38°02' E 023°32'0 0.0
2014-Sep-09 09:15N 38°02' E 023°32'0 0.3
2014-Sep-09 08:18N 38°02' E 023°32'4 5.8
2014-Sep-09 07:34N 37°57' E 023°33'1 1.2
2014-Sep-09 06:34N 37°58' E 023°35'0 0.0
2014-Sep-09 05:34N 37°58' E 023°35'2 2.0
2014-Sep-09 04:34N 37°56' E 023°34'3 3.3
2014-Sep-09 03:34N 37°53' E 023°33'0 0.0
2014-Sep-09 02:33N 37°53' E 023°33'0 0.0
2014-Sep-09 01:34N 37°53' E 023°33'0 0.0
2014-Sep-09 00:34N 37°53' E 023°33'0 0.0
2014-Sep-08 23:33N 37°53' E 023°33'0 0.0
2014-Sep-08 22:34N 37°53' E 023°33'0 0.0
2014-Sep-08 21:34N 37°53' E 023°33'0 0.0
2014-Sep-08 20:34N 37°53' E 023°33'0 0.0
2014-Sep-08 19:33N 37°53' E 023°33'0 0.0
2014-Sep-08 18:34N 37°53' E 023°33'3 2.7
2014-Sep-08 17:34N 37°55' E 023°34'2 0.1
2014-Sep-07 14:34N 37°57' E 023°36'0 0.2
2014-Sep-07 13:33N 37°57' E 023°36'0 0.0
2014-Sep-07 12:34N 37°57' E 023°36'1 0.0
2014-Sep-06 11:25N 37°58' E 023°35'  
Track history (hours):
 
Tides and Currents Weather Stations Pressure Air Temp Water Temp Dewpoint Dewpoint Depression Visibility Wind Speed Wind Dir Waves Ship Positions

Maria

Last reported at 2014-Sep-16 10:33 UTC. Time now 2014-Sep-16 11:26 UTC.
Position N 37°53' E 023°33'.

Length 74 m; draft 4.5 m.

Type: Ship. MMSI: 237493000.

Date/timePositionNaut miles runAvg speedWind from/ knotsBaromVisibWave heightAir tempDewpointWater temp
2014-Sep-16 10:33N 37°53' E 023°33'0 0.3
2014-Sep-16 09:33N 37°53' E 023°33'4 0.2
2014-Sep-15 15:06N 37°58' E 023°35'2 3.9
2014-Sep-15 14:33N 37°56' E 023°34'0 0.0
2014-Sep-15 13:33N 37°56' E 023°34'0 0.1
2014-Sep-15 12:33N 37°56' E 023°34'0 0.1
2014-Sep-15 11:33N 37°56' E 023°34'4 3.9
2014-Sep-15 10:33N 37°59' E 023°33'3 3.1
2014-Sep-15 09:33N 38°02' E 023°36'0 0.0
2014-Sep-15 08:33N 38°02' E 023°36'1 0.6
2014-Sep-15 07:29N 38°02' E 023°35'3 3.4
2014-Sep-15 06:33N 37°59' E 023°33'2 0.0
2014-Sep-13 13:18N 37°57' E 023°35'0 0.6
2014-Sep-13 12:33N 37°57' E 023°35'0 0.0
2014-Sep-13 11:33N 37°57' E 023°35'0 0.0
2014-Sep-13 10:32N 37°57' E 023°35'0 0.0
2014-Sep-13 09:32N 37°57' E 023°35'0 0.0
2014-Sep-13 08:33N 37°57' E 023°35'0 0.0
2014-Sep-13 07:32N 37°57' E 023°35'0 0.0
2014-Sep-13 06:34N 37°57' E 023°35'0 0.0
2014-Sep-13 05:33N 37°57' E 023°35'2 2.1
2014-Sep-13 04:34N 37°58' E 023°33'4 3.5
2014-Sep-13 03:32N 38°01' E 023°34'0 0.0
2014-Sep-13 02:16N 38°01' E 023°34'1 0.3
2014-Sep-12 23:19N 38°02' E 023°36'0 0.0
2014-Sep-12 22:32N 38°02' E 023°36'0 0.0
2014-Sep-12 21:33N 38°02' E 023°36'0 0.0
2014-Sep-12 20:31N 38°02' E 023°36'0 0.0
2014-Sep-12 19:33N 38°02' E 023°36'1 0.5
2014-Sep-12 18:28N 38°02' E 023°35'0 0.3
2014-Sep-12 17:27N 38°02' E 023°35'0 0.0
2014-Sep-12 16:24N 38°02' E 023°35'0 0.0
2014-Sep-12 15:27N 38°02' E 023°35'2 0.5
2014-Sep-12 11:04N 38°02' E 023°32'0 0.7
2014-Sep-12 10:26N 38°02' E 023°32'0 0.0
2014-Sep-12 09:23N 38°02' E 023°32'0 0.4
2014-Sep-12 08:33N 38°01' E 023°32'4 4.1
2014-Sep-12 07:33N 37°58' E 023°35'2 0.1
2014-Sep-11 10:34N 37°56' E 023°34'2 1.9
2014-Sep-11 09:33N 37°54' E 023°33'2 1.6
2014-Sep-11 08:34N 37°56' E 023°34'2 0.1
2014-Sep-10 14:27N 37°58' E 023°35'4 4.7
2014-Sep-10 13:34N 37°54' E 023°33'0 0.0
2014-Sep-10 12:34N 37°54' E 023°33'4 3.6
2014-Sep-10 11:34N 37°57' E 023°34'5 4.4
2014-Sep-10 10:31N 38°01' E 023°32'1 0.6
2014-Sep-10 08:25N 38°00' E 023°33'3 3.3
2014-Sep-10 07:34N 37°58' E 023°35'0 0.0
2014-Sep-09 16:20N 37°58' E 023°35'4 5.0
2014-Sep-09 15:34N 37°54' E 023°33'2 2.0
2014-Sep-09 14:33N 37°52' E 023°32'0 0.1
2014-Sep-09 13:34N 37°52' E 023°32'6 6.3
2014-Sep-09 12:33N 37°58' E 023°33'4 3.0
2014-Sep-09 11:23N 38°02' E 023°32'0 0.0
2014-Sep-09 10:33N 38°02' E 023°32'0 0.0
2014-Sep-09 09:15N 38°02' E 023°32'0 0.3
2014-Sep-09 08:18N 38°02' E 023°32'4 5.8
2014-Sep-09 07:34N 37°57' E 023°33'1 1.2
2014-Sep-09 06:34N 37°58' E 023°35'0 0.0
2014-Sep-09 05:34N 37°58' E 023°35'2 2.0
2014-Sep-09 04:34N 37°56' E 023°34'3 3.3
2014-Sep-09 03:34N 37°53' E 023°33'0 0.0
2014-Sep-09 02:33N 37°53' E 023°33'0 0.0
2014-Sep-09 01:34N 37°53' E 023°33'0 0.0
2014-Sep-09 00:34N 37°53' E 023°33'0 0.0
2014-Sep-08 23:33N 37°53' E 023°33'0 0.0
2014-Sep-08 22:34N 37°53' E 023°33'0 0.0
2014-Sep-08 21:34N 37°53' E 023°33'0 0.0
2014-Sep-08 20:34N 37°53' E 023°33'0 0.0
2014-Sep-08 19:33N 37°53' E 023°33'0 0.0
2014-Sep-08 18:34N 37°53' E 023°33'3 2.7
2014-Sep-08 17:34N 37°55' E 023°34'2 0.1
2014-Sep-07 14:34N 37°57' E 023°36'0 0.2
2014-Sep-07 13:33N 37°57' E 023°36'0 0.0
2014-Sep-07 12:34N 37°57' E 023°36'1 0.0
2014-Sep-06 11:25N 37°58' E 023°35'  

Dump ship's entire track history